Time;durP1;ratioP1;P1;durP2;ratioP2;P2;SDS_P1;SDS_P2;PMS_P1;PMS_P2;Temp;Humidity;BMP_temperature;BMP_pressure;BME280_temperature;BME280_humidity;BME280_pressure;Samples;Min_cycle;Max_cycle;Signal;HPM_P1;HPM_P2
2023/04/13 00:01:55;;;;;;;0.10;0.10;;;;;;;;;;5077980;28;20665;-94
2023/04/13 00:04:26;;;;;;;2.07;0.40;;;;;;;;;;5076996;28;20230;-93
2023/04/13 00:06:54;;;;;;;0.70;0.70;;;;;;;;;;5077197;28;20256;-93
2023/04/13 00:09:29;;;;;;;0.60;0.60;;;;;;;;;;5077419;28;20238;-93
2023/04/13 00:11:59;;;;;;;1.70;0.67;;;;;;;;;;5076484;28;20221;-93
2023/04/13 00:14:32;;;;;;;0.90;0.90;;;;;;;;;;5077515;28;20203;-93
2023/04/13 00:17:01;;;;;;;0.37;0.37;;;;;;;;;;5076999;28;20256;-92
2023/04/13 00:19:33;;;;;;;1.90;0.73;;;;;;;;;;5089164;28;20199;-91
2023/04/13 00:22:01;;;;;;;1.77;0.60;;;;;;;;;;5094398;28;20207;-91
2023/04/13 00:24:35;;;;;;;1.37;1.20;;;;;;;;;;5089010;28;20689;-92
2023/04/13 00:27:03;;;;;;;1.00;1.00;;;;;;;;;;5077266;28;20202;-92
2023/04/13 00:29:34;;;;;;;0.80;0.80;;;;;;;;;;5076672;28;20229;-92
2023/04/13 00:32:03;;;;;;;0.47;0.47;;;;;;;;;;5080065;28;20205;-92
2023/04/13 00:34:30;;;;;;;0.60;0.60;;;;;;;;;;5082032;28;20210;-91
2023/04/13 00:36:57;;;;;;;0.70;0.70;;;;;;;;;;5094104;28;20214;-92
2023/04/13 00:39:30;;;;;;;0.60;0.60;;;;;;;;;;5095703;28;20179;-90
2023/04/13 00:42:06;;;;;;;1.80;1.10;;;;;;;;;;5095761;28;20230;-91
2023/04/13 00:44:38;;;;;;;0.70;0.47;;;;;;;;;;5095341;28;20196;-91
2023/04/13 00:47:11;;;;;;;1.07;1.07;;;;;;;;;;5089517;28;20203;-89
2023/04/13 00:49:39;;;;;;;1.10;1.00;;;;;;;;;;5086853;28;20230;-91
2023/04/13 00:52:09;;;;;;;0.70;0.67;;;;;;;;;;5092372;28;20191;-91
2023/04/13 00:54:38;;;;;;;2.63;1.20;;;;;;;;;;5083986;28;20643;-91
2023/04/13 00:57:09;;;;;;;0.33;0.33;;;;;;;;;;5080329;28;20194;-91
2023/04/13 00:59:38;;;;;;;0.80;0.70;;;;;;;;;;5084375;28;20604;-92
2023/04/13 01:02:06;;;;;;;1.00;1.00;;;;;;;;;;5084287;28;20281;-91
2023/04/13 01:04:36;;;;;;;0.67;0.60;;;;;;;;;;5083942;28;20289;-91
2023/04/13 01:07:14;;;;;;;0.67;0.67;;;;;;;;;;5085442;28;20201;-92
2023/04/13 01:09:46;;;;;;;0.57;0.57;;;;;;;;;;5085693;28;20236;-90
2023/04/13 01:12:23;;;;;;;0.63;0.63;;;;;;;;;;5088183;28;20191;-90
2023/04/13 01:14:55;;;;;;;0.60;0.60;;;;;;;;;;5091666;28;20599;-89
2023/04/13 01:17:27;;;;;;;0.87;0.67;;;;;;;;;;5080557;28;20183;-90
2023/04/13 01:19:57;;;;;;;2.53;0.83;;;;;;;;;;5080376;28;20199;-91
2023/04/13 01:25:32;;;;;;;0.90;0.90;;;;;;;;;;5033304;28;20209;-93
2023/04/13 01:28:09;;;;;;;0.70;0.70;;;;;;;;;;5078606;28;20214;-92
2023/04/13 01:30:37;;;;;;;0.47;0.47;;;;;;;;;;5077672;28;20228;-92
2023/04/13 01:33:08;;;;;;;0.60;0.60;;;;;;;;;;5058496;28;20210;-93
2023/04/13 01:35:40;;;;;;;0.40;0.40;;;;;;;;;;5056743;28;20267;-93
2023/04/13 01:38:08;;;;;;;6.93;0.93;;;;;;;;;;5057319;28;20235;-93
2023/04/13 01:40:40;;;;;;;0.60;0.60;;;;;;;;;;5056615;28;20215;-92
2023/04/13 01:43:10;;;;;;;0.57;0.57;;;;;;;;;;5056550;28;20195;-92
2023/04/13 01:45:51;;;;;;;1.33;0.90;;;;;;;;;;5056567;28;20223;-92
2023/04/13 01:48:21;;;;;;;0.30;0.30;;;;;;;;;;5056143;28;20617;-93
2023/04/13 01:50:50;;;;;;;3.40;1.53;;;;;;;;;;5055932;28;20230;-92
2023/04/13 01:53:21;;;;;;;0.50;0.50;;;;;;;;;;5056768;28;20203;-93
2023/04/13 01:55:49;;;;;;;2.53;1.47;;;;;;;;;;5056202;28;20279;-91
2023/04/13 01:58:22;;;;;;;0.30;0.30;;;;;;;;;;5055887;28;20209;-91
2023/04/13 02:00:51;;;;;;;1.33;1.33;;;;;;;;;;5057796;28;20225;-92
2023/04/13 02:03:21;;;;;;;1.13;0.90;;;;;;;;;;5059513;28;20201;-91
2023/04/13 02:05:49;;;;;;;0.60;0.60;;;;;;;;;;5059565;28;20638;-92
2023/04/13 02:08:19;;;;;;;0.73;0.73;;;;;;;;;;5059078;28;20294;-91
2023/04/13 02:10:47;;;;;;;0.60;0.60;;;;;;;;;;5061174;28;20227;-92
2023/04/13 02:13:19;;;;;;;0.50;0.50;;;;;;;;;;5060854;28;20195;-91
2023/04/13 02:15:59;;;;;;;0.43;0.43;;;;;;;;;;5062122;28;20206;-92
2023/04/13 02:18:27;;;;;;;0.60;0.60;;;;;;;;;;5065656;28;20203;-91
2023/04/13 02:21:06;;;;;;;0.90;0.63;;;;;;;;;;5075476;28;20203;-92
2023/04/13 02:23:36;;;;;;;0.67;0.60;;;;;;;;;;5063785;28;20203;-92
2023/04/13 02:26:07;;;;;;;0.73;0.33;;;;;;;;;;5063669;28;20199;-90
2023/04/13 02:28:39;;;;;;;0.87;0.87;;;;;;;;;;5068848;28;20199;-90
2023/04/13 02:31:15;;;;;;;0.40;0.40;;;;;;;;;;5067192;28;20231;-90
2023/04/13 02:33:45;;;;;;;0.83;0.60;;;;;;;;;;5063677;28;20217;-92
2023/04/13 02:36:16;;;;;;;1.00;1.00;;;;;;;;;;5060803;28;20206;-92
2023/04/13 02:38:46;;;;;;;0.93;0.50;;;;;;;;;;5059484;28;20207;-91
2023/04/13 02:41:14;;;;;;;0.60;0.60;;;;;;;;;;5061520;28;20187;-92
2023/04/13 02:43:42;;;;;;;1.60;0.30;;;;;;;;;;5059808;28;20203;-92
2023/04/13 02:46:12;;;;;;;0.63;0.63;;;;;;;;;;5059406;28;20191;-93
2023/04/13 02:48:40;;;;;;;0.30;0.30;;;;;;;;;;5059673;28;20639;-91
2023/04/13 02:51:13;;;;;;;0.60;0.60;;;;;;;;;;5058166;28;20231;-93
2023/04/13 02:53:45;;;;;;;1.20;1.10;;;;;;;;;;5058382;28;20226;-93
2023/04/13 02:56:14;;;;;;;0.60;0.60;;;;;;;;;;5058386;28;20222;-92
2023/04/13 02:58:45;;;;;;;0.60;0.60;;;;;;;;;;5058967;28;20584;-93
2023/04/13 03:01:23;;;;;;;0.30;0.30;;;;;;;;;;5058505;28;20207;-92
2023/04/13 03:03:51;;;;;;;0.50;0.50;;;;;;;;;;5041508;28;20234;-89
2023/04/13 03:06:21;;;;;;;0.80;0.80;;;;;;;;;;4976196;28;20206;-92
2023/04/13 03:08:50;;;;;;;3.10;0.80;;;;;;;;;;4975928;28;20213;-93
2023/04/13 03:11:18;;;;;;;1.30;0.50;;;;;;;;;;4976323;28;20264;-92
2023/04/13 03:13:49;;;;;;;1.27;1.10;;;;;;;;;;4975867;28;20202;-93
2023/04/13 03:16:25;;;;;;;0.37;0.37;;;;;;;;;;4978335;28;20236;-93
2023/04/13 03:18:53;;;;;;;0.33;0.33;;;;;;;;;;4976410;28;20600;-92
2023/04/13 03:21:24;;;;;;;0.93;0.47;;;;;;;;;;4978976;28;20198;-94
2023/04/13 03:23:53;;;;;;;3.13;1.17;;;;;;;;;;4981609;28;20239;-92
2023/04/13 03:26:21;;;;;;;0.40;0.40;;;;;;;;;;4989275;28;20229;-91
2023/04/13 03:28:51;;;;;;;0.30;0.30;;;;;;;;;;4985307;28;20233;-90
2023/04/13 03:31:21;;;;;;;0.40;0.40;;;;;;;;;;4986575;28;20286;-90
2023/04/13 03:33:49;;;;;;;1.03;0.43;;;;;;;;;;4985249;28;20222;-92
2023/04/13 03:36:20;;;;;;;0.47;0.47;;;;;;;;;;4989276;28;20198;-91
2023/04/13 03:38:52;;;;;;;0.40;0.40;;;;;;;;;;4988519;28;20216;-90
2023/04/13 03:41:22;;;;;;;0.37;0.30;;;;;;;;;;4992428;28;20227;-92
2023/04/13 03:43:50;;;;;;;2.33;0.70;;;;;;;;;;4992690;28;20289;-92
2023/04/13 03:46:18;;;;;;;2.27;1.07;;;;;;;;;;4989322;28;20198;-92
2023/04/13 03:48:52;;;;;;;6.43;0.90;;;;;;;;;;4982675;28;20293;-91
2023/04/13 03:51:22;;;;;;;0.57;0.57;;;;;;;;;;4978632;28;20237;-93
2023/04/13 03:53:51;;;;;;;0.30;0.30;;;;;;;;;;4978044;28;20356;-91
2023/04/13 03:56:20;;;;;;;1.07;0.97;;;;;;;;;;4977295;28;20198;-91
2023/04/13 03:58:49;;;;;;;0.63;0.63;;;;;;;;;;4978035;28;20206;-91
2023/04/13 04:01:20;;;;;;;0.67;0.67;;;;;;;;;;4978061;28;20198;-90
2023/04/13 04:03:54;;;;;;;1.80;0.57;;;;;;;;;;4977531;28;20226;-91
2023/04/13 04:06:28;;;;;;;0.40;0.40;;;;;;;;;;4977957;28;20198;-92
2023/04/13 04:11:45;;;;;;;1.80;0.60;;;;;;;;;;4980262;28;20733;-94
2023/04/13 04:14:13;;;;;;;0.70;0.53;;;;;;;;;;4983422;28;20194;-93
2023/04/13 04:16:45;;;;;;;1.90;1.20;;;;;;;;;;4987283;28;20226;-93
2023/04/13 04:19:20;;;;;;;1.43;1.33;;;;;;;;;;4989432;28;20194;-93
2023/04/13 04:21:48;;;;;;;1.43;1.30;;;;;;;;;;4976048;28;20216;-91
2023/04/13 04:27:01;;;;;;;1.30;1.20;;;;;;;;;;4980168;28;20297;-91
2023/04/13 04:29:32;;;;;;;11.30;2.37;;;;;;;;;;4976227;28;20195;-92
2023/04/13 04:32:01;;;;;;;3.67;2.77;;;;;;;;;;4976291;28;20232;-92
2023/04/13 04:34:51;;;;;;;5.23;2.63;;;;;;;;;;4975898;28;20204;-92
2023/04/13 04:37:36;;;;;;;3.67;2.30;;;;;;;;;;4975200;28;20196;-90
2023/04/13 04:40:08;;;;;;;3.45;2.33;;;;;;;;;;4973950;28;20614;-93
2023/04/13 04:42:37;;;;;;;4.57;2.88;;;;;;;;;;4984230;28;20196;-93
2023/04/13 04:45:06;;;;;;;2.05;1.92;;;;;;;;;;5077227;28;20269;-92
2023/04/13 04:47:40;;;;;;;2.00;1.90;;;;;;;;;;5077228;28;20206;-92
2023/04/13 04:50:24;;;;;;;4.43;2.35;;;;;;;;;;5072939;28;20202;-94
2023/04/13 04:52:53;;;;;;;1.90;1.80;;;;;;;;;;5076656;28;20207;-93
2023/04/13 04:55:22;;;;;;;3.60;2.17;;;;;;;;;;5077235;28;20262;-92
2023/04/13 04:58:01;;;;;;;1.70;1.70;;;;;;;;;;5077256;28;20591;-94
2023/04/13 05:00:35;;;;;;;2.00;1.90;;;;;;;;;;5091622;28;20247;-93
2023/04/13 05:03:08;;;;;;;2.22;2.03;;;;;;;;;;5095568;28;20175;-92
2023/04/13 05:05:40;;;;;;;1.88;1.70;;;;;;;;;;5095133;28;20222;-92
2023/04/13 05:08:12;;;;;;;1.92;1.83;;;;;;;;;;5094255;28;20182;-92
2023/04/13 05:10:44;;;;;;;1.98;1.88;;;;;;;;;;5085143;28;20230;-93
2023/04/13 05:13:13;;;;;;;2.83;2.00;;;;;;;;;;5076839;28;20278;-93
2023/04/13 05:15:42;;;;;;;1.67;1.58;;;;;;;;;;5077920;28;20206;-92
2023/04/13 05:18:16;;;;;;;1.60;1.50;;;;;;;;;;5077280;28;20560;-92
2023/04/13 05:20:46;;;;;;;1.30;1.30;;;;;;;;;;5076976;28;20632;-92
2023/04/13 05:23:19;;;;;;;1.25;1.25;;;;;;;;;;5077010;28;20195;-93
2023/04/13 05:25:48;;;;;;;1.05;1.05;;;;;;;;;;5078629;28;20193;-92
2023/04/13 05:28:20;;;;;;;2.08;1.88;;;;;;;;;;5076185;28;20368;-91
2023/04/13 05:30:51;;;;;;;2.75;2.15;;;;;;;;;;5075972;28;20297;-93
2023/04/13 05:33:19;;;;;;;4.15;1.58;;;;;;;;;;5075912;28;20230;-91
2023/04/13 05:35:52;;;;;;;2.92;1.50;;;;;;;;;;5074470;28;20195;-92
2023/04/13 05:38:26;;;;;;;1.65;1.50;;;;;;;;;;5075623;28;20198;-94
2023/04/13 05:40:54;;;;;;;1.80;1.70;;;;;;;;;;5075435;28;20622;-91
2023/04/13 05:43:24;;;;;;;1.00;1.00;;;;;;;;;;5076054;28;20239;-92
2023/04/13 05:46:19;;;;;;;2.42;1.42;;;;;;;;;;5075434;28;20266;-90
2023/04/13 05:49:01;;;;;;;1.30;1.30;;;;;;;;;;5076190;28;20198;-92
2023/04/13 05:51:53;;;;;;;2.50;1.02;;;;;;;;;;5075933;28;20253;-93
2023/04/13 05:54:26;;;;;;;2.80;1.30;;;;;;;;;;5077160;28;20580;-92
2023/04/13 05:56:59;;;;;;;1.65;1.58;;;;;;;;;;5077815;28;20207;-93
2023/04/13 06:00:02;;;;;;;;;;;;;;;;;;;;;
2023/04/13 06:05:17;;;;;;;1.40;1.40;;;;;;;;;;5061791;28;20302;-94
2023/04/13 06:07:52;;;;;;;1.73;1.63;;;;;;;;;;5075137;28;20267;-92
2023/04/13 06:10:37;;;;;;;1.60;1.50;;;;;;;;;;5074208;28;20218;-94
2023/04/13 06:13:36;;;;;;;2.22;1.40;;;;;;;;;;5075347;28;20217;-93
2023/04/13 06:19:33;;;;;;;;;;;;;;;;;;;;;
2023/04/13 06:22:36;;;;;;;1.95;1.60;;;;;;;;;;5078785;28;20595;-87
2023/04/13 06:28:34;;;;;;;1.20;1.20;;;;;;;;;;4965502;28;20312;-93
2023/04/13 06:34:26;;;;;;;3.38;1.73;;;;;;;;;;5011686;28;20700;-94
2023/04/13 06:40:11;;;;;;;3.63;1.15;;;;;;;;;;4999643;28;20372;-92
2023/04/13 06:42:44;;;;;;;1.70;1.60;;;;;;;;;;5011118;28;20658;-93
2023/04/13 06:45:32;;;;;;;1.38;1.35;;;;;;;;;;5010993;28;20205;-94
2023/04/13 06:48:18;;;;;;;1.50;1.48;;;;;;;;;;5032288;28;20678;-94
2023/04/13 06:50:53;;;;;;;1.10;1.10;;;;;;;;;;5065687;28;20264;-92
2023/04/13 06:53:26;;;;;;;1.80;1.70;;;;;;;;;;5065001;28;20201;-91
2023/04/13 06:56:10;;;;;;;1.30;1.30;;;;;;;;;;5068330;28;20195;-91
2023/04/13 06:58:49;;;;;;;1.25;1.10;;;;;;;;;;5066721;28;20218;-93
2023/04/13 07:01:17;;;;;;;1.92;1.27;;;;;;;;;;5060276;28;20720;-91
2023/04/13 07:03:50;;;;;;;2.72;1.35;;;;;;;;;;5060927;28;20318;-91
2023/04/13 07:06:27;;;;;;;1.73;1.63;;;;;;;;;;5078279;28;20303;-93
2023/04/13 07:09:00;;;;;;;1.17;1.17;;;;;;;;;;5086749;28;20263;-92
2023/04/13 07:11:34;;;;;;;2.88;1.85;;;;;;;;;;5077676;28;20234;-93
2023/04/13 07:14:21;;;;;;;1.45;1.45;;;;;;;;;;5078844;28;20198;-91
2023/04/13 07:17:07;;;;;;;1.30;1.20;;;;;;;;;;5077162;28;20202;-93
2023/04/13 07:19:38;;;;;;;1.35;1.27;;;;;;;;;;5015063;28;20247;-92
2023/04/13 07:34:27;;;;;;;;;;;;;;;;;;;;;
2023/04/13 07:37:28;;;;;;;1.55;1.45;;;;;;;;;;4936206;29;20668;-92
2023/04/13 07:40:15;;;;;;;;;;;;;;;;;;;;;
2023/04/13 07:42:57;;;;;;;1.33;1.23;;;;;;;;;;4891922;28;20212;-92
2023/04/13 07:45:31;;;;;;;3.38;1.67;;;;;;;;;;4956503;28;20213;-91
2023/04/13 07:48:05;;;;;;;1.98;1.50;;;;;;;;;;4976381;28;20283;-93
2023/04/13 07:50:37;;;;;;;1.08;1.08;;;;;;;;;;4975190;28;20199;-91
2023/04/13 07:53:09;;;;;;;2.38;2.10;;;;;;;;;;4974245;28;20242;-93
2023/04/13 07:56:06;;;;;;;3.20;1.70;;;;;;;;;;4971222;28;20253;-91
2023/04/13 07:58:35;;;;;;;3.63;1.02;;;;;;;;;;4964563;28;20209;-92
2023/04/13 08:01:11;;;;;;;1.98;1.80;;;;;;;;;;5054038;28;20241;-93
2023/04/13 08:03:51;;;;;;;;;;;;;;;;;;;;;
2023/04/13 08:06:22;;;;;;;1.25;1.15;;;;;;;;;;4967935;28;20206;-92
2023/04/13 08:08:57;;;;;;;1.67;1.58;;;;;;;;;;4984639;28;20224;-93
2023/04/13 08:11:34;;;;;;;0.93;0.90;;;;;;;;;;5123370;23;20244;-92
2023/04/13 08:14:08;;;;;;;1.73;1.10;;;;;;;;;;5081387;28;20194;-92
2023/04/13 08:16:47;;;;;;;;;;;;;;;;;;;;;
2023/04/13 08:19:18;;;;;;;2.85;1.20;;;;;;;;;;5055962;28;20596;-93
2023/04/13 08:21:52;;;;;;;1.35;1.23;;;;;;;;;;5060577;28;20205;-92
2023/04/13 08:24:21;;;;;;;1.20;1.10;;;;;;;;;;5073017;28;20201;-92
2023/04/13 08:26:57;;;;;;;1.77;1.30;;;;;;;;;;5075793;28;20194;-92
2023/04/13 08:29:32;;;;;;;1.70;1.60;;;;;;;;;;5076869;28;20225;-92
2023/04/13 08:32:00;;;;;;;1.85;1.00;;;;;;;;;;5074468;28;20228;-94
2023/04/13 08:34:32;;;;;;;1.27;1.25;;;;;;;;;;5064045;28;20293;-90
2023/04/13 08:37:05;;;;;;;1.48;1.10;;;;;;;;;;5075681;28;20555;-94
2023/04/13 08:39:44;;;;;;;6.93;1.23;;;;;;;;;;5077674;28;20198;-92
2023/04/13 08:42:14;;;;;;;1.17;1.10;;;;;;;;;;5093405;28;20191;-93
2023/04/13 08:44:47;;;;;;;3.22;1.30;;;;;;;;;;5093111;28;20233;-93
2023/04/13 08:47:16;;;;;;;1.20;0.80;;;;;;;;;;5076492;28;20198;-91
2023/04/13 08:49:45;;;;;;;1.38;1.15;;;;;;;;;;5075984;28;20351;-91
2023/04/13 08:52:14;;;;;;;1.13;1.02;;;;;;;;;;5075165;28;20230;-93
2023/04/13 08:54:44;;;;;;;1.67;1.58;;;;;;;;;;5074384;28;20195;-93
2023/04/13 08:57:16;;;;;;;2.20;1.17;;;;;;;;;;5074300;28;20205;-91
2023/04/13 08:59:55;;;;;;;1.95;1.05;;;;;;;;;;5058155;28;20227;-92
2023/04/13 09:02:24;;;;;;;1.65;1.55;;;;;;;;;;5056597;28;20210;-93
2023/04/13 09:04:54;;;;;;;9.27;1.40;;;;;;;;;;5061192;28;20476;-93
2023/04/13 09:07:25;;;;;;;2.53;1.35;;;;;;;;;;5061446;28;20569;-93
2023/04/13 09:10:04;;;;;;;2.92;1.63;;;;;;;;;;5062782;28;20669;-93
2023/04/13 09:12:38;;;;;;;1.00;1.00;;;;;;;;;;5036631;28;20218;-93
2023/04/13 09:15:07;;;;;;;4.20;2.13;;;;;;;;;;5036486;28;20201;-93
2023/04/13 09:17:35;;;;;;;1.23;1.13;;;;;;;;;;5037437;28;20202;-92
2023/04/13 09:20:17;;;;;;;3.13;1.70;;;;;;;;;;5038706;28;20203;-93
2023/04/13 09:22:48;;;;;;;1.77;1.13;;;;;;;;;;5054682;28;20216;-94
2023/04/13 09:25:22;;;;;;;4.32;1.33;;;;;;;;;;5057017;28;20212;-91
2023/04/13 09:28:17;;;;;;;1.20;1.10;;;;;;;;;;5034570;28;20223;-92
2023/04/13 09:30:55;;;;;;;1.23;1.13;;;;;;;;;;5034670;28;20230;-92
2023/04/13 09:33:26;;;;;;;0.88;0.88;;;;;;;;;;5032968;28;20254;-93
2023/04/13 09:35:57;;;;;;;1.00;1.00;;;;;;;;;;5036350;28;20223;-94
2023/04/13 09:38:36;;;;;;;1.10;1.00;;;;;;;;;;5037002;28;20243;-93
2023/04/13 09:41:14;;;;;;;0.90;0.90;;;;;;;;;;5035788;28;20308;-93
2023/04/13 09:44:00;;;;;;;10.88;1.38;;;;;;;;;;5058715;28;20238;-94
2023/04/13 09:46:37;;;;;;;3.55;1.00;;;;;;;;;;5061303;28;20642;-91
2023/04/13 09:49:07;;;;;;;1.45;1.35;;;;;;;;;;5054299;28;20219;-90
2023/04/13 09:54:42;;;;;;;1.00;1.00;;;;;;;;;;5037678;28;20231;-93
2023/04/13 09:57:14;;;;;;;1.48;1.10;;;;;;;;;;5050959;28;20228;-90
2023/04/13 09:59:54;;;;;;;1.15;1.10;;;;;;;;;;5049464;28;20246;-94
2023/04/13 10:02:22;;;;;;;1.42;1.33;;;;;;;;;;5049964;28;20239;-95
2023/04/13 10:05:03;;;;;;;1.67;1.00;;;;;;;;;;5041522;28;20220;-94
2023/04/13 10:07:35;;;;;;;3.45;1.48;;;;;;;;;;5036378;28;20281;-94
2023/04/13 10:10:04;;;;;;;2.20;1.40;;;;;;;;;;5036697;28;21629;-93
2023/04/13 10:12:50;;;;;;;1.88;1.40;;;;;;;;;;5035654;28;20759;-92
2023/04/13 10:15:33;;;;;;;1.42;1.40;;;;;;;;;;5029605;28;20253;-94
2023/04/13 10:18:10;;;;;;;2.45;1.50;;;;;;;;;;5033383;28;20212;-93
2023/04/13 10:20:43;;;;;;;1.38;1.20;;;;;;;;;;5025038;28;20239;-92
2023/04/13 10:23:13;;;;;;;3.80;1.50;;;;;;;;;;5034603;28;20224;-93
2023/04/13 10:25:53;;;;;;;0.95;0.95;;;;;;;;;;5036564;28;20230;-93
2023/04/13 10:28:42;;;;;;;1.02;0.95;;;;;;;;;;5047962;28;20289;-93
2023/04/13 10:31:20;;;;;;;1.10;1.10;;;;;;;;;;5059985;28;20377;-93
2023/04/13 10:33:55;;;;;;;0.95;0.95;;;;;;;;;;5056170;28;20613;-94
2023/04/13 10:36:42;;;;;;;0.50;0.50;;;;;;;;;;5056993;28;20231;-94
2023/04/13 10:39:19;;;;;;;0.82;0.82;;;;;;;;;;5054552;28;20230;-93
2023/04/13 10:42:20;;;;;;;1.15;0.60;;;;;;;;;;5052843;28;20246;-93
2023/04/13 10:45:06;;;;;;;0.68;0.68;;;;;;;;;;5060157;28;20223;-93
2023/04/13 10:57:23;;;;;;;1.02;0.85;;;;;;;;;;5047724;28;20631;-94
2023/04/13 11:00:24;;;;;;;0.80;0.80;;;;;;;;;;5014625;28;20293;-89
2023/04/13 11:03:14;;;;;;;0.75;0.75;;;;;;;;;;5024279;28;20220;-91
2023/04/13 11:05:56;;;;;;;2.08;1.35;;;;;;;;;;5031173;28;20216;-92
2023/04/13 11:08:31;;;;;;;0.70;0.63;;;;;;;;;;5031149;28;20227;-90
2023/04/13 11:11:03;;;;;;;0.80;0.80;;;;;;;;;;5030640;28;20258;-90
2023/04/13 11:13:33;;;;;;;2.05;0.82;;;;;;;;;;5030323;28;20332;-90
2023/04/13 11:19:22;;;;;;;;;;;;;;;;;;;;;
2023/04/13 11:22:09;;;;;;;0.68;0.68;;;;;;;;;;5032867;28;20236;-90
2023/04/13 11:24:41;;;;;;;2.63;0.60;;;;;;;;;;5033822;28;20224;-90
2023/04/13 11:27:25;;;;;;;5.35;1.10;;;;;;;;;;5065909;28;20703;-90
2023/04/13 11:30:09;;;;;;;0.98;0.70;;;;;;;;;;5056912;28;20231;-89
2023/04/13 11:32:40;;;;;;;1.88;1.15;;;;;;;;;;5053519;28;20262;-87
2023/04/13 11:35:08;;;;;;;1.10;1.10;;;;;;;;;;5053482;28;20228;-88
2023/04/13 11:37:41;;;;;;;0.77;0.77;;;;;;;;;;5049808;28;20638;-88
2023/04/13 11:40:15;;;;;;;0.70;0.70;;;;;;;;;;5048199;28;20223;-88
2023/04/13 11:42:46;;;;;;;0.73;0.73;;;;;;;;;;5054952;28;20230;-88
2023/04/13 11:45:18;;;;;;;0.95;0.80;;;;;;;;;;5054462;28;20231;-88
2023/04/13 11:47:47;;;;;;;0.57;0.57;;;;;;;;;;5055379;28;20238;-88
2023/04/13 11:50:16;;;;;;;0.77;0.77;;;;;;;;;;5056905;28;20223;-89
2023/04/13 11:52:49;;;;;;;1.75;0.63;;;;;;;;;;5055704;28;20721;-88
2023/04/13 11:55:20;;;;;;;0.73;0.73;;;;;;;;;;5041300;28;20232;-89
2023/04/13 11:57:48;;;;;;;0.45;0.45;;;;;;;;;;5037482;28;20286;-89
2023/04/13 12:00:17;;;;;;;0.75;0.75;;;;;;;;;;5068427;28;20230;-87
2023/04/13 12:02:45;;;;;;;0.70;0.70;;;;;;;;;;5060566;28;20220;-90
2023/04/13 12:05:23;;;;;;;1.05;1.05;;;;;;;;;;5059543;28;20246;-87
2023/04/13 12:07:57;;;;;;;0.60;0.60;;;;;;;;;;5055591;28;20254;-86
2023/04/13 12:10:33;;;;;;;0.70;0.70;;;;;;;;;;5032813;28;20258;-90
2023/04/13 12:13:05;;;;;;;1.27;0.70;;;;;;;;;;5038194;28;20244;-93
2023/04/13 12:21:44;;;;;;;;;;;;;;;;;;;;;
2023/04/13 12:24:31;;;;;;;0.75;0.75;;;;;;;;;;5039224;28;20235;-93
2023/04/13 12:27:18;;;;;;;0.80;0.80;;;;;;;;;;5038198;28;20242;-91
2023/04/13 12:30:00;;;;;;;1.63;0.40;;;;;;;;;;5061217;28;20231;-93
2023/04/13 12:32:35;;;;;;;0.63;0.63;;;;;;;;;;5058705;28;20318;-93
2023/04/13 12:35:11;;;;;;;2.47;0.93;;;;;;;;;;5057434;28;20233;-93
2023/04/13 12:38:06;;;;;;;0.80;0.80;;;;;;;;;;5047940;28;20234;-95
2023/04/13 12:40:37;;;;;;;0.75;0.75;;;;;;;;;;5042974;28;20216;-92
2023/04/13 12:43:07;;;;;;;0.73;0.73;;;;;;;;;;5050551;28;20243;-92
2023/04/13 12:45:37;;;;;;;0.93;0.70;;;;;;;;;;5038967;28;20281;-94
2023/04/13 12:48:05;;;;;;;0.65;0.65;;;;;;;;;;5056140;28;20212;-91
2023/04/13 12:50:34;;;;;;;1.58;0.80;;;;;;;;;;5051300;28;20224;-92
2023/04/13 12:53:11;;;;;;;4.30;1.13;;;;;;;;;;5052365;28;20695;-92
2023/04/13 12:55:46;;;;;;;0.55;0.55;;;;;;;;;;5066738;28;20234;-92
2023/04/13 12:58:17;;;;;;;0.85;0.70;;;;;;;;;;5068527;28;20296;-92
2023/04/13 13:00:58;;;;;;;0.60;0.60;;;;;;;;;;5054892;28;20226;-90
2023/04/13 13:03:35;;;;;;;1.85;1.05;;;;;;;;;;5053140;28;20231;-92
2023/04/13 13:09:06;;;;;;;0.93;0.93;;;;;;;;;;5047978;28;20606;-92
2023/04/13 13:11:38;;;;;;;0.80;0.80;;;;;;;;;;5035991;28;20244;-93
2023/04/13 13:14:09;;;;;;;0.60;0.60;;;;;;;;;;5053746;28;20227;-92
2023/04/13 13:16:51;;;;;;;0.80;0.80;;;;;;;;;;5054483;28;20223;-93
2023/04/13 13:19:31;;;;;;;0.60;0.60;;;;;;;;;;5053296;28;20528;-94
2023/04/13 13:25:14;;;;;;;0.80;0.80;;;;;;;;;;5049360;28;20324;-93
2023/04/13 13:27:44;;;;;;;1.90;1.30;;;;;;;;;;5053124;28;20614;-93
2023/04/13 13:30:15;;;;;;;0.88;0.88;;;;;;;;;;5055516;28;20698;-94
2023/04/13 13:32:52;;;;;;;0.55;0.55;;;;;;;;;;5042490;28;20243;-93
2023/04/13 13:35:28;;;;;;;0.90;0.90;;;;;;;;;;5053017;28;20337;-92
2023/04/13 13:38:06;;;;;;;0.50;0.50;;;;;;;;;;5055485;28;20219;-92
2023/04/13 13:40:56;;;;;;;0.80;0.80;;;;;;;;;;5056851;28;20219;-93
2023/04/13 13:43:32;;;;;;;0.60;0.60;;;;;;;;;;5047261;28;20223;-93
2023/04/13 13:46:26;;;;;;;0.80;0.80;;;;;;;;;;5056923;28;20222;-93
2023/04/13 13:49:00;;;;;;;1.05;1.05;;;;;;;;;;5054940;28;20219;-94
2023/04/13 13:51:31;;;;;;;0.70;0.70;;;;;;;;;;5055553;28;20318;-95
2023/04/13 13:54:27;;;;;;;0.55;0.55;;;;;;;;;;5056002;28;20246;-94
2023/04/13 13:57:02;;;;;;;0.52;0.52;;;;;;;;;;5052717;28;20318;-93
2023/04/13 13:59:31;;;;;;;0.95;0.95;;;;;;;;;;5048141;28;20584;-93
2023/04/13 14:02:01;;;;;;;1.80;1.00;;;;;;;;;;5048749;28;20314;-93
2023/04/13 14:04:36;;;;;;;0.85;0.70;;;;;;;;;;5047839;28;20253;-93
2023/04/13 14:07:09;;;;;;;0.50;0.50;;;;;;;;;;5041471;28;20692;-93
2023/04/13 14:09:37;;;;;;;1.35;1.30;;;;;;;;;;5042978;28;20226;-94
2023/04/13 14:12:05;;;;;;;2.58;1.58;;;;;;;;;;5047193;28;20334;-93
2023/04/13 14:14:34;;;;;;;0.70;0.70;;;;;;;;;;5034595;28;20244;-92
2023/04/13 14:17:02;;;;;;;0.60;0.60;;;;;;;;;;5050069;28;20700;-94
2023/04/13 14:19:36;;;;;;;0.80;0.80;;;;;;;;;;5041913;28;20216;-93
2023/04/13 14:22:08;;;;;;;0.60;0.60;;;;;;;;;;5040476;28;20238;-93
2023/04/13 14:24:39;;;;;;;1.77;0.50;;;;;;;;;;5048692;28;20236;-93
2023/04/13 14:27:17;;;;;;;2.88;0.68;;;;;;;;;;5043736;28;20279;-92
2023/04/13 14:29:47;;;;;;;1.85;1.75;;;;;;;;;;5041062;28;20249;-93
2023/04/13 14:32:16;;;;;;;1.48;1.38;;;;;;;;;;5046793;28;20223;-94
2023/04/13 14:34:54;;;;;;;0.80;0.80;;;;;;;;;;5053400;28;20247;-93
2023/04/13 14:37:32;;;;;;;0.80;0.80;;;;;;;;;;5047885;28;20229;-93
2023/04/13 14:42:51;;;;;;;0.80;0.80;;;;;;;;;;5033196;28;20236;-93
2023/04/13 14:45:29;;;;;;;0.85;0.60;;;;;;;;;;5037461;28;20243;-94
2023/04/13 14:47:59;;;;;;;1.42;1.23;;;;;;;;;;5038678;28;20226;-91
2023/04/13 14:50:39;;;;;;;0.68;0.68;;;;;;;;;;5046728;28;20235;-92
2023/04/13 14:53:22;;;;;;;1.10;1.10;;;;;;;;;;5053775;28;20208;-93
2023/04/13 14:56:21;;;;;;;1.00;0.90;;;;;;;;;;5040625;28;20230;-92
2023/04/13 14:59:02;;;;;;;3.30;0.85;;;;;;;;;;5037944;28;20227;-93
2023/04/13 15:01:34;;;;;;;0.70;0.70;;;;;;;;;;5060321;28;20227;-92
2023/04/13 15:04:04;;;;;;;0.68;0.68;;;;;;;;;;5066382;28;20779;-93
2023/04/13 15:06:38;;;;;;;0.85;0.85;;;;;;;;;;5016079;28;20318;-93
2023/04/13 15:09:08;;;;;;;0.68;0.68;;;;;;;;;;5036717;28;20197;-93
2023/04/13 15:11:41;;;;;;;0.80;0.80;;;;;;;;;;5038418;28;20232;-93
2023/04/13 15:14:18;;;;;;;0.98;0.80;;;;;;;;;;5038053;28;20331;-93
2023/04/13 15:16:46;;;;;;;0.57;0.57;;;;;;;;;;5037463;28;20203;-93
2023/04/13 15:19:15;;;;;;;0.88;0.50;;;;;;;;;;5037996;28;20234;-93
2023/04/13 15:21:52;;;;;;;1.15;0.88;;;;;;;;;;5038234;28;20204;-92
2023/04/13 15:24:21;;;;;;;0.70;0.63;;;;;;;;;;5036849;28;20277;-93
2023/04/13 15:27:00;;;;;;;1.63;0.60;;;;;;;;;;5037944;28;20656;-94
2023/04/13 15:29:34;;;;;;;0.57;0.57;;;;;;;;;;5039799;28;20196;-92
2023/04/13 15:32:08;;;;;;;0.70;0.70;;;;;;;;;;5043379;28;20221;-94
2023/04/13 15:34:55;;;;;;;0.85;0.52;;;;;;;;;;5042654;28;20341;-94
2023/04/13 15:37:26;;;;;;;1.73;0.98;;;;;;;;;;5042291;28;20204;-92
2023/04/13 15:40:15;;;;;;;0.82;0.82;;;;;;;;;;5047731;28;20219;-92
2023/04/13 15:42:59;;;;;;;1.67;0.98;;;;;;;;;;5046927;28;20223;-93
2023/04/13 15:45:41;;;;;;;1.02;0.95;;;;;;;;;;5042536;28;20204;-92
2023/04/13 15:51:13;;;;;;;2.45;2.25;;;;;;;;;;5042017;28;20226;-93
2023/04/13 15:53:45;;;;;;;2.05;1.00;;;;;;;;;;5047157;28;20239;-93
2023/04/13 15:56:20;;;;;;;0.95;0.95;;;;;;;;;;5041872;28;20283;-92
2023/04/13 15:58:56;;;;;;;0.40;0.40;;;;;;;;;;5041871;28;20223;-93
2023/04/13 16:01:31;;;;;;;0.63;0.63;;;;;;;;;;5048249;28;20894;-90
2023/04/13 16:04:06;;;;;;;0.75;0.75;;;;;;;;;;5062650;28;20231;-91
2023/04/13 16:06:38;;;;;;;0.55;0.55;;;;;;;;;;5047190;28;20279;-94
2023/04/13 16:09:11;;;;;;;0.63;0.63;;;;;;;;;;5048111;28;20216;-91
2023/04/13 16:11:49;;;;;;;0.90;0.88;;;;;;;;;;5053884;28;20258;-94
2023/04/13 16:14:24;;;;;;;3.50;0.60;;;;;;;;;;5044700;28;20246;-93
2023/04/13 16:16:58;;;;;;;4.32;2.25;;;;;;;;;;5039872;28;20285;-93
2023/04/13 16:19:45;;;;;;;3.35;1.20;;;;;;;;;;5038380;28;20687;-93
2023/04/13 16:22:20;;;;;;;1.02;1.00;;;;;;;;;;5046847;28;20247;-94
2023/04/13 16:25:04;;;;;;;0.50;0.50;;;;;;;;;;5057824;28;20313;-95
2023/04/13 16:27:38;;;;;;;0.65;0.65;;;;;;;;;;5054803;28;20222;-93
2023/04/13 16:30:19;;;;;;;6.55;0.50;;;;;;;;;;5065950;28;20223;-93
2023/04/13 16:32:48;;;;;;;0.73;0.68;;;;;;;;;;5048330;28;20219;-94
2023/04/13 16:35:34;;;;;;;0.63;0.63;;;;;;;;;;5044316;28;20310;-91
2023/04/13 16:38:03;;;;;;;0.77;0.77;;;;;;;;;;5048128;28;20293;-94
2023/04/13 16:40:45;;;;;;;2.15;0.90;;;;;;;;;;5042794;28;20315;-95
2023/04/13 16:43:18;;;;;;;0.63;0.63;;;;;;;;;;5047334;28;20251;-93
2023/04/13 16:45:57;;;;;;;0.68;0.68;;;;;;;;;;5046412;28;20227;-92